East Grand Forks, Minnesota
Current Conditions -  °F | °C
As of 12:53 AM on Saturday 25 Oct 2014 (Local Time) from KGFK Reporting Station
Clear Clear  
Wind Chill: 43°   Ceiling: Unl
Heat Index: 47°   Visibility: 10mi
Dew Point: 35°   Wind: 8mph
Humidity: 63%   Direction: 290°WNW
Pressure: 29.92"   Gusts: NA
Location:  47.93°N, 97.02°W
Report Text: KGFK 250553Z AUTO 29007KT 10SM CLR 08/02 A2992 RMK AO2 SLP134 T00830017 10167 20083 402330028 51018 TSNO
Loading
Personal Weather Stations






























Interactive Weather Map
Tropical Storm Tracking
New forecast layout! Learn more

10-Day Weather Forecast

Advertisements
Track Severe Weather on mobile